sensor_id;sensor_type;location;lat;lon;timestamp;temperature;humidity
18597;DHT22;9428;50.950;6.912;2023-01-28T00:02:07;4.20;99.90
18597;DHT22;9428;50.950;6.912;2023-01-28T00:04:55;4.20;99.90
18597;DHT22;9428;50.950;6.912;2023-01-28T00:07:43;4.10;99.90
18597;DHT22;9428;50.950;6.912;2023-01-28T00:10:30;4.00;99.90
18597;DHT22;9428;50.950;6.912;2023-01-28T00:13:17;4.00;99.90
18597;DHT22;9428;50.950;6.912;2023-01-28T00:16:06;3.80;99.90
18597;DHT22;9428;50.950;6.912;2023-01-28T00:18:54;3.90;99.90
18597;DHT22;9428;50.950;6.912;2023-01-28T00:21:43;4.00;99.90
18597;DHT22;9428;50.950;6.912;2023-01-28T00:24:30;4.10;99.90
18597;DHT22;9428;50.950;6.912;2023-01-28T00:27:17;4.10;99.90
18597;DHT22;9428;50.950;6.912;2023-01-28T00:30:06;4.00;99.90
18597;DHT22;9428;50.950;6.912;2023-01-28T00:32:53;3.80;99.90
18597;DHT22;9428;50.950;6.912;2023-01-28T00:35:41;3.70;99.90
18597;DHT22;9428;50.950;6.912;2023-01-28T00:38:29;3.80;99.90
18597;DHT22;9428;50.950;6.912;2023-01-28T00:41:18;3.40;99.90
18597;DHT22;9428;50.950;6.912;2023-01-28T00:44:07;3.50;99.90
18597;DHT22;9428;50.950;6.912;2023-01-28T00:46:55;3.90;99.90
18597;DHT22;9428;50.950;6.912;2023-01-28T00:49:42;3.80;99.90
18597;DHT22;9428;50.950;6.912;2023-01-28T00:52:29;3.80;99.90
18597;DHT22;9428;50.950;6.912;2023-01-28T00:55:18;3.80;99.90
18597;DHT22;9428;50.950;6.912;2023-01-28T00:58:06;4.00;99.90
18597;DHT22;9428;50.950;6.912;2023-01-28T01:00:53;4.00;99.90
18597;DHT22;9428;50.950;6.912;2023-01-28T01:03:40;3.20;99.90
18597;DHT22;9428;50.950;6.912;2023-01-28T01:06:29;3.70;99.90
18597;DHT22;9428;50.950;6.912;2023-01-28T01:09:17;3.80;99.90
18597;DHT22;9428;50.950;6.912;2023-01-28T01:12:06;3.90;99.90
18597;DHT22;9428;50.950;6.912;2023-01-28T01:14:54;3.80;99.90
18597;DHT22;9428;50.950;6.912;2023-01-28T01:17:43;3.60;99.90
18597;DHT22;9428;50.950;6.912;2023-01-28T01:20:31;4.30;99.90
18597;DHT22;9428;50.950;6.912;2023-01-28T01:23:25;3.90;99.90
18597;DHT22;9428;50.950;6.912;2023-01-28T01:26:13;4.10;99.90
18597;DHT22;9428;50.950;6.912;2023-01-28T01:29:01;3.70;99.90
18597;DHT22;9428;50.950;6.912;2023-01-28T01:31:49;3.80;99.90
18597;DHT22;9428;50.950;6.912;2023-01-28T01:34:36;3.90;99.90
18597;DHT22;9428;50.950;6.912;2023-01-28T01:37:23;3.70;99.90
18597;DHT22;9428;50.950;6.912;2023-01-28T01:40:11;3.60;99.90
18597;DHT22;9428;50.950;6.912;2023-01-28T01:42:58;3.60;99.90
18597;DHT22;9428;50.950;6.912;2023-01-28T01:45:49;4.30;99.90
18597;DHT22;9428;50.950;6.912;2023-01-28T01:48:37;3.60;99.90
18597;DHT22;9428;50.950;6.912;2023-01-28T01:51:28;3.60;99.90
18597;DHT22;9428;50.950;6.912;2023-01-28T01:54:17;3.50;99.90
18597;DHT22;9428;50.950;6.912;2023-01-28T01:57:06;3.60;99.90
18597;DHT22;9428;50.950;6.912;2023-01-28T01:59:56;3.60;99.90
18597;DHT22;9428;50.950;6.912;2023-01-28T02:02:52;3.60;99.90
18597;DHT22;9428;50.950;6.912;2023-01-28T02:05:41;3.40;99.90
18597;DHT22;9428;50.950;6.912;2023-01-28T02:08:29;4.20;99.90
18597;DHT22;9428;50.950;6.912;2023-01-28T02:11:16;3.40;99.90
18597;DHT22;9428;50.950;6.912;2023-01-28T02:14:04;3.40;99.90
18597;DHT22;9428;50.950;6.912;2023-01-28T02:16:52;3.60;99.90
18597;DHT22;9428;50.950;6.912;2023-01-28T02:19:45;3.40;99.90
18597;DHT22;9428;50.950;6.912;2023-01-28T02:22:54;3.40;99.90
18597;DHT22;9428;50.950;6.912;2023-01-28T02:29:09;3.20;99.90
18597;DHT22;9428;50.950;6.912;2023-01-28T02:32:04;3.60;99.90
18597;DHT22;9428;50.950;6.912;2023-01-28T02:35:00;3.20;99.90
18597;DHT22;9428;50.950;6.912;2023-01-28T02:37:53;3.00;99.90
18597;DHT22;9428;50.950;6.912;2023-01-28T02:40:46;3.00;99.90
18597;DHT22;9428;50.950;6.912;2023-01-28T02:43:47;3.10;99.90
18597;DHT22;9428;50.950;6.912;2023-01-28T02:46:37;3.00;99.90
18597;DHT22;9428;50.950;6.912;2023-01-28T02:49:44;3.10;99.90
18597;DHT22;9428;50.950;6.912;2023-01-28T02:52:40;2.80;99.90
18597;DHT22;9428;50.950;6.912;2023-01-28T02:55:54;2.90;99.90
18597;DHT22;9428;50.950;6.912;2023-01-28T02:58:47;3.00;99.90
18597;DHT22;9428;50.950;6.912;2023-01-28T03:01:41;3.10;99.90
18597;DHT22;9428;50.950;6.912;2023-01-28T03:04:34;3.10;99.90
18597;DHT22;9428;50.950;6.912;2023-01-28T03:07:26;3.10;99.90
18597;DHT22;9428;50.950;6.912;2023-01-28T03:10:19;3.00;99.90
18597;DHT22;9428;50.950;6.912;2023-01-28T03:13:06;3.00;99.90
18597;DHT22;9428;50.950;6.912;2023-01-28T03:16:10;3.40;99.90
18597;DHT22;9428;50.950;6.912;2023-01-28T03:19:17;3.00;99.90
18597;DHT22;9428;50.950;6.912;2023-01-28T03:22:23;3.10;99.90
18597;DHT22;9428;50.950;6.912;2023-01-28T03:25:30;3.10;99.90
18597;DHT22;9428;50.950;6.912;2023-01-28T03:28:38;2.90;99.90
18597;DHT22;9428;50.950;6.912;2023-01-28T03:31:43;3.00;99.90
18597;DHT22;9428;50.950;6.912;2023-01-28T03:34:49;2.90;99.90
18597;DHT22;9428;50.950;6.912;2023-01-28T03:37:54;3.20;99.90
18597;DHT22;9428;50.950;6.912;2023-01-28T03:40:49;3.30;99.90
18597;DHT22;9428;50.950;6.912;2023-01-28T03:43:39;3.10;99.90
18597;DHT22;9428;50.950;6.912;2023-01-28T03:46:27;3.40;99.90
18597;DHT22;9428;50.950;6.912;2023-01-28T03:49:14;3.10;99.90
18597;DHT22;9428;50.950;6.912;2023-01-28T03:52:03;3.10;99.90
18597;DHT22;9428;50.950;6.912;2023-01-28T03:54:51;3.30;99.90
18597;DHT22;9428;50.950;6.912;2023-01-28T03:57:38;3.70;99.90
18597;DHT22;9428;50.950;6.912;2023-01-28T04:00:25;3.40;99.90
18597;DHT22;9428;50.950;6.912;2023-01-28T04:03:15;3.40;99.90
18597;DHT22;9428;50.950;6.912;2023-01-28T04:06:04;3.60;99.90
18597;DHT22;9428;50.950;6.912;2023-01-28T04:08:53;3.10;99.90
18597;DHT22;9428;50.950;6.912;2023-01-28T04:11:44;3.20;99.90
18597;DHT22;9428;50.950;6.912;2023-01-28T04:14:31;3.50;99.90
18597;DHT22;9428;50.950;6.912;2023-01-28T04:17:18;3.40;99.90
18597;DHT22;9428;50.950;6.912;2023-01-28T04:20:06;3.40;99.90
18597;DHT22;9428;50.950;6.912;2023-01-28T04:22:53;3.30;99.90
18597;DHT22;9428;50.950;6.912;2023-01-28T04:25:42;3.30;99.90
18597;DHT22;9428;50.950;6.912;2023-01-28T04:28:29;3.50;99.90
18597;DHT22;9428;50.950;6.912;2023-01-28T04:31:16;3.40;99.90
18597;DHT22;9428;50.950;6.912;2023-01-28T04:34:04;3.30;99.90
18597;DHT22;9428;50.950;6.912;2023-01-28T04:36:51;3.60;99.90
18597;DHT22;9428;50.950;6.912;2023-01-28T04:39:38;3.30;99.90
18597;DHT22;9428;50.950;6.912;2023-01-28T04:42:27;3.70;99.90
18597;DHT22;9428;50.950;6.912;2023-01-28T04:45:14;3.20;99.90
18597;DHT22;9428;50.950;6.912;2023-01-28T04:48:01;3.10;99.90
18597;DHT22;9428;50.950;6.912;2023-01-28T04:50:48;3.20;99.90
18597;DHT22;9428;50.950;6.912;2023-01-28T04:53:36;3.30;99.90
18597;DHT22;9428;50.950;6.912;2023-01-28T04:56:23;3.40;99.90
18597;DHT22;9428;50.950;6.912;2023-01-28T04:59:11;3.40;99.90
18597;DHT22;9428;50.950;6.912;2023-01-28T05:01:59;3.30;99.90
18597;DHT22;9428;50.950;6.912;2023-01-28T05:04:46;3.30;99.90
18597;DHT22;9428;50.950;6.912;2023-01-28T05:07:33;3.20;99.90
18597;DHT22;9428;50.950;6.912;2023-01-28T05:10:21;3.10;99.90
18597;DHT22;9428;50.950;6.912;2023-01-28T05:13:08;3.30;99.90
18597;DHT22;9428;50.950;6.912;2023-01-28T05:15:57;3.10;99.90
18597;DHT22;9428;50.950;6.912;2023-01-28T05:18:44;3.30;99.90
18597;DHT22;9428;50.950;6.912;2023-01-28T05:21:32;3.30;99.90
18597;DHT22;9428;50.950;6.912;2023-01-28T05:24:20;3.20;99.90
18597;DHT22;9428;50.950;6.912;2023-01-28T05:27:07;3.20;99.90
18597;DHT22;9428;50.950;6.912;2023-01-28T05:29:54;3.10;99.90
18597;DHT22;9428;50.950;6.912;2023-01-28T05:32:43;3.30;99.90
18597;DHT22;9428;50.950;6.912;2023-01-28T05:35:30;3.30;99.90
18597;DHT22;9428;50.950;6.912;2023-01-28T05:38:17;3.20;99.90
18597;DHT22;9428;50.950;6.912;2023-01-28T05:41:04;3.30;99.90
18597;DHT22;9428;50.950;6.912;2023-01-28T05:43:52;3.30;99.90
18597;DHT22;9428;50.950;6.912;2023-01-28T05:46:39;3.10;99.90
18597;DHT22;9428;50.950;6.912;2023-01-28T05:49:31;3.30;99.90
18597;DHT22;9428;50.950;6.912;2023-01-28T05:52:18;3.50;99.90
18597;DHT22;9428;50.950;6.912;2023-01-28T05:55:06;3.10;99.90
18597;DHT22;9428;50.950;6.912;2023-01-28T05:57:54;3.20;99.90
18597;DHT22;9428;50.950;6.912;2023-01-28T06:00:41;3.20;99.90
18597;DHT22;9428;50.950;6.912;2023-01-28T06:03:28;3.20;99.90
18597;DHT22;9428;50.950;6.912;2023-01-28T06:06:17;3.40;99.90
18597;DHT22;9428;50.950;6.912;2023-01-28T06:09:04;3.80;99.90
18597;DHT22;9428;50.950;6.912;2023-01-28T06:11:52;3.20;99.90
18597;DHT22;9428;50.950;6.912;2023-01-28T06:14:39;3.40;99.90
18597;DHT22;9428;50.950;6.912;2023-01-28T06:17:26;3.10;99.90
18597;DHT22;9428;50.950;6.912;2023-01-28T06:20:14;3.20;99.90
18597;DHT22;9428;50.950;6.912;2023-01-28T06:23:03;3.20;99.90
18597;DHT22;9428;50.950;6.912;2023-01-28T06:25:52;3.30;99.90
18597;DHT22;9428;50.950;6.912;2023-01-28T06:28:39;3.50;99.90
18597;DHT22;9428;50.950;6.912;2023-01-28T06:31:27;3.00;99.90
18597;DHT22;9428;50.950;6.912;2023-01-28T06:34:14;3.40;99.90
18597;DHT22;9428;50.950;6.912;2023-01-28T06:37:01;3.10;99.90
18597;DHT22;9428;50.950;6.912;2023-01-28T06:39:50;3.10;99.90
18597;DHT22;9428;50.950;6.912;2023-01-28T06:42:37;3.30;99.90
18597;DHT22;9428;50.950;6.912;2023-01-28T06:45:24;3.50;99.90
18597;DHT22;9428;50.950;6.912;2023-01-28T06:48:12;3.30;99.90
18597;DHT22;9428;50.950;6.912;2023-01-28T06:50:59;3.00;99.90
18597;DHT22;9428;50.950;6.912;2023-01-28T06:53:46;2.80;99.90
18597;DHT22;9428;50.950;6.912;2023-01-28T06:56:35;3.20;99.90
18597;DHT22;9428;50.950;6.912;2023-01-28T06:59:22;3.30;99.90
18597;DHT22;9428;50.950;6.912;2023-01-28T07:02:10;3.10;99.90
18597;DHT22;9428;50.950;6.912;2023-01-28T07:04:57;3.20;99.90
18597;DHT22;9428;50.950;6.912;2023-01-28T07:07:44;3.30;99.90
18597;DHT22;9428;50.950;6.912;2023-01-28T07:10:31;3.30;99.90
18597;DHT22;9428;50.950;6.912;2023-01-28T07:13:20;3.30;99.90
18597;DHT22;9428;50.950;6.912;2023-01-28T07:16:07;3.30;99.90
18597;DHT22;9428;50.950;6.912;2023-01-28T07:18:55;3.00;99.90
18597;DHT22;9428;50.950;6.912;2023-01-28T07:21:42;3.10;99.90
18597;DHT22;9428;50.950;6.912;2023-01-28T07:24:29;3.40;99.90
18597;DHT22;9428;50.950;6.912;2023-01-28T07:27:16;4.10;99.90
18597;DHT22;9428;50.950;6.912;2023-01-28T07:30:06;3.20;99.90
18597;DHT22;9428;50.950;6.912;2023-01-28T07:32:54;3.40;99.90
18597;DHT22;9428;50.950;6.912;2023-01-28T07:35:41;3.40;99.90
18597;DHT22;9428;50.950;6.912;2023-01-28T07:38:29;3.50;99.90
18597;DHT22;9428;50.950;6.912;2023-01-28T07:41:16;3.50;99.90
18597;DHT22;9428;50.950;6.912;2023-01-28T07:44:04;3.40;99.90
18597;DHT22;9428;50.950;6.912;2023-01-28T07:46:53;3.40;99.90
18597;DHT22;9428;50.950;6.912;2023-01-28T07:49:40;3.60;99.90
18597;DHT22;9428;50.950;6.912;2023-01-28T07:52:27;3.80;99.90
18597;DHT22;9428;50.950;6.912;2023-01-28T07:55:14;3.30;99.90
18597;DHT22;9428;50.950;6.912;2023-01-28T07:58:04;3.90;99.90
18597;DHT22;9428;50.950;6.912;2023-01-28T08:00:55;3.60;99.90
18597;DHT22;9428;50.950;6.912;2023-01-28T08:03:44;4.20;99.90
18597;DHT22;9428;50.950;6.912;2023-01-28T08:06:31;3.40;99.90
18597;DHT22;9428;50.950;6.912;2023-01-28T08:09:22;3.50;99.90
18597;DHT22;9428;50.950;6.912;2023-01-28T08:12:10;3.40;99.90
18597;DHT22;9428;50.950;6.912;2023-01-28T08:14:57;3.30;99.90
18597;DHT22;9428;50.950;6.912;2023-01-28T08:17:44;3.30;99.90
18597;DHT22;9428;50.950;6.912;2023-01-28T08:20:33;3.20;99.90
18597;DHT22;9428;50.950;6.912;2023-01-28T08:23:21;3.40;99.90
18597;DHT22;9428;50.950;6.912;2023-01-28T08:26:08;3.50;99.90
18597;DHT22;9428;50.950;6.912;2023-01-28T08:28:55;3.40;99.90
18597;DHT22;9428;50.950;6.912;2023-01-28T08:31:43;3.40;99.90
18597;DHT22;9428;50.950;6.912;2023-01-28T08:34:30;3.40;99.90
18597;DHT22;9428;50.950;6.912;2023-01-28T08:37:19;3.40;99.90
18597;DHT22;9428;50.950;6.912;2023-01-28T08:40:07;3.60;99.90
18597;DHT22;9428;50.950;6.912;2023-01-28T08:42:55;3.50;99.90
18597;DHT22;9428;50.950;6.912;2023-01-28T08:45:42;4.00;99.90
18597;DHT22;9428;50.950;6.912;2023-01-28T08:48:29;3.40;99.90
18597;DHT22;9428;50.950;6.912;2023-01-28T08:51:16;2.90;99.90
18597;DHT22;9428;50.950;6.912;2023-01-28T08:54:05;2.90;99.90
18597;DHT22;9428;50.950;6.912;2023-01-28T08:56:52;3.20;99.90
18597;DHT22;9428;50.950;6.912;2023-01-28T08:59:39;2.90;99.90
18597;DHT22;9428;50.950;6.912;2023-01-28T09:02:29;3.20;99.90
18597;DHT22;9428;50.950;6.912;2023-01-28T09:05:17;3.10;99.90
18597;DHT22;9428;50.950;6.912;2023-01-28T09:08:07;3.20;99.90
18597;DHT22;9428;50.950;6.912;2023-01-28T09:10:56;3.20;99.90
18597;DHT22;9428;50.950;6.912;2023-01-28T09:13:44;3.30;99.90
18597;DHT22;9428;50.950;6.912;2023-01-28T09:16:31;3.00;99.90
18597;DHT22;9428;50.950;6.912;2023-01-28T09:19:18;3.00;99.90
18597;DHT22;9428;50.950;6.912;2023-01-28T09:22:05;4.00;99.90
18597;DHT22;9428;50.950;6.912;2023-01-28T09:24:53;3.30;99.90
18597;DHT22;9428;50.950;6.912;2023-01-28T09:27:41;2.80;99.90
18597;DHT22;9428;50.950;6.912;2023-01-28T09:30:28;3.10;99.90
18597;DHT22;9428;50.950;6.912;2023-01-28T09:33:16;3.10;99.90
18597;DHT22;9428;50.950;6.912;2023-01-28T09:36:05;3.00;99.90
18597;DHT22;9428;50.950;6.912;2023-01-28T09:38:52;2.80;99.90
18597;DHT22;9428;50.950;6.912;2023-01-28T09:41:46;2.90;99.90
18597;DHT22;9428;50.950;6.912;2023-01-28T09:44:51;3.10;99.90
18597;DHT22;9428;50.950;6.912;2023-01-28T09:47:42;3.10;99.90
18597;DHT22;9428;50.950;6.912;2023-01-28T09:50:31;3.10;99.90
18597;DHT22;9428;50.950;6.912;2023-01-28T09:53:21;3.00;99.90
18597;DHT22;9428;50.950;6.912;2023-01-28T09:56:12;3.40;99.90
18597;DHT22;9428;50.950;6.912;2023-01-28T09:59:13;3.50;99.90
18597;DHT22;9428;50.950;6.912;2023-01-28T10:02:29;3.10;99.90
18597;DHT22;9428;50.950;6.912;2023-01-28T10:05:26;3.10;99.90
18597;DHT22;9428;50.950;6.912;2023-01-28T10:08:25;3.80;99.90
18597;DHT22;9428;50.950;6.912;2023-01-28T10:11:22;3.10;99.90
18597;DHT22;9428;50.950;6.912;2023-01-28T10:14:21;3.70;99.90
18597;DHT22;9428;50.950;6.912;2023-01-28T10:17:18;3.00;99.90
18597;DHT22;9428;50.950;6.912;2023-01-28T10:20:16;2.50;99.90
18597;DHT22;9428;50.950;6.912;2023-01-28T10:23:10;3.00;99.90
18597;DHT22;9428;50.950;6.912;2023-01-28T10:25:59;2.80;99.90
18597;DHT22;9428;50.950;6.912;2023-01-28T10:28:53;3.00;99.90
18597;DHT22;9428;50.950;6.912;2023-01-28T10:31:50;3.20;99.90
18597;DHT22;9428;50.950;6.912;2023-01-28T10:34:39;3.10;99.90
18597;DHT22;9428;50.950;6.912;2023-01-28T10:37:27;3.10;99.90
18597;DHT22;9428;50.950;6.912;2023-01-28T10:40:16;3.00;99.90
18597;DHT22;9428;50.950;6.912;2023-01-28T10:43:04;3.20;99.90
18597;DHT22;9428;50.950;6.912;2023-01-28T10:45:56;3.10;99.90
18597;DHT22;9428;50.950;6.912;2023-01-28T10:48:47;3.80;99.90
18597;DHT22;9428;50.950;6.912;2023-01-28T10:51:42;3.20;99.90
18597;DHT22;9428;50.950;6.912;2023-01-28T10:54:29;3.20;99.90
18597;DHT22;9428;50.950;6.912;2023-01-28T10:57:17;2.90;99.90
18597;DHT22;9428;50.950;6.912;2023-01-28T11:00:17;3.00;99.90
18597;DHT22;9428;50.950;6.912;2023-01-28T11:03:17;3.00;99.90
18597;DHT22;9428;50.950;6.912;2023-01-28T11:06:05;3.20;99.90
18597;DHT22;9428;50.950;6.912;2023-01-28T11:08:54;2.90;99.90
18597;DHT22;9428;50.950;6.912;2023-01-28T11:11:41;3.70;99.90
18597;DHT22;9428;50.950;6.912;2023-01-28T11:14:28;3.00;99.90
18597;DHT22;9428;50.950;6.912;2023-01-28T11:17:16;3.20;99.90
18597;DHT22;9428;50.950;6.912;2023-01-28T11:20:10;3.20;99.90
18597;DHT22;9428;50.950;6.912;2023-01-28T11:22:59;3.20;99.90
18597;DHT22;9428;50.950;6.912;2023-01-28T11:25:47;3.20;99.90
18597;DHT22;9428;50.950;6.912;2023-01-28T11:28:39;3.30;99.90
18597;DHT22;9428;50.950;6.912;2023-01-28T11:31:27;3.30;99.90
18597;DHT22;9428;50.950;6.912;2023-01-28T11:34:16;3.20;99.90
18597;DHT22;9428;50.950;6.912;2023-01-28T11:37:12;3.20;99.90
18597;DHT22;9428;50.950;6.912;2023-01-28T11:40:15;3.90;99.90
18597;DHT22;9428;50.950;6.912;2023-01-28T11:43:08;3.00;99.90
18597;DHT22;9428;50.950;6.912;2023-01-28T11:46:04;3.20;99.90
18597;DHT22;9428;50.950;6.912;2023-01-28T11:49:00;3.10;99.90
18597;DHT22;9428;50.950;6.912;2023-01-28T11:51:57;3.20;99.90
18597;DHT22;9428;50.950;6.912;2023-01-28T11:54:56;3.20;99.90
18597;DHT22;9428;50.950;6.912;2023-01-28T11:57:51;3.10;99.90
18597;DHT22;9428;50.950;6.912;2023-01-28T12:00:44;3.00;99.90
18597;DHT22;9428;50.950;6.912;2023-01-28T12:03:58;3.30;99.90
18597;DHT22;9428;50.950;6.912;2023-01-28T12:07:00;3.10;99.90
18597;DHT22;9428;50.950;6.912;2023-01-28T12:09:54;3.50;99.90
18597;DHT22;9428;50.950;6.912;2023-01-28T12:13:04;2.90;99.90
18597;DHT22;9428;50.950;6.912;2023-01-28T12:22:48;3.30;99.90
18597;DHT22;9428;50.950;6.912;2023-01-28T12:25:48;3.10;99.90
18597;DHT22;9428;50.950;6.912;2023-01-28T12:28:56;3.30;99.90
18597;DHT22;9428;50.950;6.912;2023-01-28T12:32:18;3.60;99.90
18597;DHT22;9428;50.950;6.912;2023-01-28T12:35:28;3.40;99.90
18597;DHT22;9428;50.950;6.912;2023-01-28T12:38:22;3.10;99.90
18597;DHT22;9428;50.950;6.912;2023-01-28T12:41:13;3.30;99.90
18597;DHT22;9428;50.950;6.912;2023-01-28T12:44:02;3.00;99.90
18597;DHT22;9428;50.950;6.912;2023-01-28T12:46:53;2.50;99.90
18597;DHT22;9428;50.950;6.912;2023-01-28T12:49:45;2.80;99.90
18597;DHT22;9428;50.950;6.912;2023-01-28T12:52:37;3.30;99.90
18597;DHT22;9428;50.950;6.912;2023-01-28T12:55:36;3.20;99.90
18597;DHT22;9428;50.950;6.912;2023-01-28T12:58:35;3.20;99.90
18597;DHT22;9428;50.950;6.912;2023-01-28T13:01:27;3.30;99.90
18597;DHT22;9428;50.950;6.912;2023-01-28T13:04:22;3.30;99.90
18597;DHT22;9428;50.950;6.912;2023-01-28T13:07:20;3.30;99.90
18597;DHT22;9428;50.950;6.912;2023-01-28T13:10:16;3.30;99.90
18597;DHT22;9428;50.950;6.912;2023-01-28T13:13:05;3.00;99.90
18597;DHT22;9428;50.950;6.912;2023-01-28T13:15:53;2.80;99.90
18597;DHT22;9428;50.950;6.912;2023-01-28T13:18:44;3.10;99.90
18597;DHT22;9428;50.950;6.912;2023-01-28T13:21:35;3.20;99.90
18597;DHT22;9428;50.950;6.912;2023-01-28T13:24:30;2.90;99.90
18597;DHT22;9428;50.950;6.912;2023-01-28T13:27:23;3.20;99.90
18597;DHT22;9428;50.950;6.912;2023-01-28T13:30:23;3.30;99.90
18597;DHT22;9428;50.950;6.912;2023-01-28T13:33:28;3.20;99.90
18597;DHT22;9428;50.950;6.912;2023-01-28T13:36:22;3.90;99.90
18597;DHT22;9428;50.950;6.912;2023-01-28T13:39:17;3.20;99.90
18597;DHT22;9428;50.950;6.912;2023-01-28T13:42:21;3.50;99.90
18597;DHT22;9428;50.950;6.912;2023-01-28T13:45:24;3.60;99.90
18597;DHT22;9428;50.950;6.912;2023-01-28T13:48:22;3.50;99.90
18597;DHT22;9428;50.950;6.912;2023-01-28T13:51:18;3.40;99.90
18597;DHT22;9428;50.950;6.912;2023-01-28T13:54:08;3.40;99.90
18597;DHT22;9428;50.950;6.912;2023-01-28T13:57:16;3.30;99.90
18597;DHT22;9428;50.950;6.912;2023-01-28T14:00:15;3.10;99.90
18597;DHT22;9428;50.950;6.912;2023-01-28T14:03:37;3.10;99.90
18597;DHT22;9428;50.950;6.912;2023-01-28T14:06:53;3.00;99.90
18597;DHT22;9428;50.950;6.912;2023-01-28T14:10:02;2.80;99.90
18597;DHT22;9428;50.950;6.912;2023-01-28T14:13:06;2.60;99.90
18597;DHT22;9428;50.950;6.912;2023-01-28T14:16:26;3.20;99.90
18597;DHT22;9428;50.950;6.912;2023-01-28T14:19:15;3.10;99.90
18597;DHT22;9428;50.950;6.912;2023-01-28T14:22:06;2.80;99.90
18597;DHT22;9428;50.950;6.912;2023-01-28T14:24:54;2.80;99.90
18597;DHT22;9428;50.950;6.912;2023-01-28T14:27:46;2.50;99.90
18597;DHT22;9428;50.950;6.912;2023-01-28T14:30:42;3.10;99.90
18597;DHT22;9428;50.950;6.912;2023-01-28T14:33:34;3.10;99.90
18597;DHT22;9428;50.950;6.912;2023-01-28T14:36:22;3.20;99.90
18597;DHT22;9428;50.950;6.912;2023-01-28T14:39:15;3.30;99.90
18597;DHT22;9428;50.950;6.912;2023-01-28T14:42:03;2.70;99.90
18597;DHT22;9428;50.950;6.912;2023-01-28T14:45:01;3.20;99.90
18597;DHT22;9428;50.950;6.912;2023-01-28T14:48:08;3.10;99.90
18597;DHT22;9428;50.950;6.912;2023-01-28T14:51:22;2.90;99.90
18597;DHT22;9428;50.950;6.912;2023-01-28T14:54:31;3.00;99.90
18597;DHT22;9428;50.950;6.912;2023-01-28T14:57:32;3.00;99.90
18597;DHT22;9428;50.950;6.912;2023-01-28T15:00:26;3.10;99.90
18597;DHT22;9428;50.950;6.912;2023-01-28T15:03:18;3.30;99.90
18597;DHT22;9428;50.950;6.912;2023-01-28T15:06:12;3.30;99.90
18597;DHT22;9428;50.950;6.912;2023-01-28T15:09:05;3.20;99.90
18597;DHT22;9428;50.950;6.912;2023-01-28T15:11:56;2.80;99.90
18597;DHT22;9428;50.950;6.912;2023-01-28T15:14:44;3.10;99.90
18597;DHT22;9428;50.950;6.912;2023-01-28T15:17:31;2.30;99.90
18597;DHT22;9428;50.950;6.912;2023-01-28T15:20:21;3.00;99.90
18597;DHT22;9428;50.950;6.912;2023-01-28T15:23:13;3.30;99.90
18597;DHT22;9428;50.950;6.912;2023-01-28T15:26:04;3.40;99.90
18597;DHT22;9428;50.950;6.912;2023-01-28T15:28:52;3.20;99.90
18597;DHT22;9428;50.950;6.912;2023-01-28T15:31:47;2.90;99.90
18597;DHT22;9428;50.950;6.912;2023-01-28T15:34:34;2.90;99.90
18597;DHT22;9428;50.950;6.912;2023-01-28T15:37:24;3.20;99.90
18597;DHT22;9428;50.950;6.912;2023-01-28T15:40:17;4.00;99.90
18597;DHT22;9428;50.950;6.912;2023-01-28T15:43:16;3.40;99.90
18597;DHT22;9428;50.950;6.912;2023-01-28T15:46:10;3.30;99.90
18597;DHT22;9428;50.950;6.912;2023-01-28T15:48:59;3.30;99.90
18597;DHT22;9428;50.950;6.912;2023-01-28T15:51:48;3.20;99.90
18597;DHT22;9428;50.950;6.912;2023-01-28T15:54:40;3.20;99.90
18597;DHT22;9428;50.950;6.912;2023-01-28T15:57:30;3.00;99.90
18597;DHT22;9428;50.950;6.912;2023-01-28T16:00:19;3.10;99.90
18597;DHT22;9428;50.950;6.912;2023-01-28T16:03:07;3.30;99.90
18597;DHT22;9428;50.950;6.912;2023-01-28T16:05:58;3.30;99.90
18597;DHT22;9428;50.950;6.912;2023-01-28T16:08:51;3.00;99.90
18597;DHT22;9428;50.950;6.912;2023-01-28T16:11:40;3.30;99.90
18597;DHT22;9428;50.950;6.912;2023-01-28T16:14:36;3.40;99.90
18597;DHT22;9428;50.950;6.912;2023-01-28T16:17:44;3.10;99.90
18597;DHT22;9428;50.950;6.912;2023-01-28T16:20:33;3.00;99.90
18597;DHT22;9428;50.950;6.912;2023-01-28T16:23:23;3.80;99.90
18597;DHT22;9428;50.950;6.912;2023-01-28T16:26:20;3.40;99.90
18597;DHT22;9428;50.950;6.912;2023-01-28T16:29:13;2.20;99.90
18597;DHT22;9428;50.950;6.912;2023-01-28T16:32:01;2.90;99.90
18597;DHT22;9428;50.950;6.912;2023-01-28T16:34:49;3.00;99.90
18597;DHT22;9428;50.950;6.912;2023-01-28T16:37:36;3.00;99.90
18597;DHT22;9428;50.950;6.912;2023-01-28T16:40:24;2.80;99.90
18597;DHT22;9428;50.950;6.912;2023-01-28T16:43:12;2.90;99.90
18597;DHT22;9428;50.950;6.912;2023-01-28T16:46:01;2.60;99.90
18597;DHT22;9428;50.950;6.912;2023-01-28T16:48:48;3.20;99.90
18597;DHT22;9428;50.950;6.912;2023-01-28T16:51:36;2.70;99.90
18597;DHT22;9428;50.950;6.912;2023-01-28T16:54:24;2.60;99.90
18597;DHT22;9428;50.950;6.912;2023-01-28T16:57:13;2.70;99.90
18597;DHT22;9428;50.950;6.912;2023-01-28T17:00:01;2.50;99.90
18597;DHT22;9428;50.950;6.912;2023-01-28T17:02:50;2.60;99.90
18597;DHT22;9428;50.950;6.912;2023-01-28T17:05:37;2.60;99.90
18597;DHT22;9428;50.950;6.912;2023-01-28T17:08:24;2.70;99.90
18597;DHT22;9428;50.950;6.912;2023-01-28T17:11:12;2.70;99.90
18597;DHT22;9428;50.950;6.912;2023-01-28T17:14:00;2.80;99.90
18597;DHT22;9428;50.950;6.912;2023-01-28T17:16:47;2.60;99.90
18597;DHT22;9428;50.950;6.912;2023-01-28T17:19:36;2.60;99.90
18597;DHT22;9428;50.950;6.912;2023-01-28T17:22:23;2.70;99.90
18597;DHT22;9428;50.950;6.912;2023-01-28T17:25:10;2.60;99.90
18597;DHT22;9428;50.950;6.912;2023-01-28T17:27:59;2.60;99.90
18597;DHT22;9428;50.950;6.912;2023-01-28T17:30:46;2.60;99.90
18597;DHT22;9428;50.950;6.912;2023-01-28T17:33:33;2.70;99.90
18597;DHT22;9428;50.950;6.912;2023-01-28T17:36:22;2.80;99.90
18597;DHT22;9428;50.950;6.912;2023-01-28T17:39:10;2.80;99.90
18597;DHT22;9428;50.950;6.912;2023-01-28T17:41:58;2.80;99.90
18597;DHT22;9428;50.950;6.912;2023-01-28T17:44:45;2.50;99.90
18597;DHT22;9428;50.950;6.912;2023-01-28T17:47:32;2.60;99.90
18597;DHT22;9428;50.950;6.912;2023-01-28T17:50:19;2.60;99.90
18597;DHT22;9428;50.950;6.912;2023-01-28T17:53:09;2.50;99.90
18597;DHT22;9428;50.950;6.912;2023-01-28T17:55:56;2.50;99.90
18597;DHT22;9428;50.950;6.912;2023-01-28T17:58:48;2.40;99.90
18597;DHT22;9428;50.950;6.912;2023-01-28T18:01:38;2.30;99.90
18597;DHT22;9428;50.950;6.912;2023-01-28T18:04:25;2.40;99.90
18597;DHT22;9428;50.950;6.912;2023-01-28T18:07:12;2.40;99.90
18597;DHT22;9428;50.950;6.912;2023-01-28T18:10:01;2.20;99.90
18597;DHT22;9428;50.950;6.912;2023-01-28T18:12:48;2.30;99.90
18597;DHT22;9428;50.950;6.912;2023-01-28T18:15:35;3.00;99.90
18597;DHT22;9428;50.950;6.912;2023-01-28T18:18:23;3.10;99.90
18597;DHT22;9428;50.950;6.912;2023-01-28T18:21:20;2.20;99.90
18597;DHT22;9428;50.950;6.912;2023-01-28T18:24:08;2.20;99.90
18597;DHT22;9428;50.950;6.912;2023-01-28T18:26:58;1.90;99.90
18597;DHT22;9428;50.950;6.912;2023-01-28T18:29:45;2.10;99.90
18597;DHT22;9428;50.950;6.912;2023-01-28T18:32:33;2.30;99.90
18597;DHT22;9428;50.950;6.912;2023-01-28T18:35:21;2.30;99.90
18597;DHT22;9428;50.950;6.912;2023-01-28T18:38:08;2.30;99.90
18597;DHT22;9428;50.950;6.912;2023-01-28T18:40:56;2.40;99.90
18597;DHT22;9428;50.950;6.912;2023-01-28T18:43:44;2.20;99.90
18597;DHT22;9428;50.950;6.912;2023-01-28T18:46:31;2.20;99.90
18597;DHT22;9428;50.950;6.912;2023-01-28T18:49:19;2.10;99.90